createdAt,value
2023-02-05T00:03:16.856Z,-0.83
2023-02-05T00:05:44.307Z,-0.39
2023-02-05T00:11:10.536Z,-0.39
2023-02-05T00:13:38.718Z,-0.09
2023-02-05T00:16:10.261Z,-0.12
2023-02-05T00:18:39.086Z,-0.09
2023-02-05T00:21:07.335Z,0.18
2023-02-05T00:23:35.693Z,0.22
2023-02-05T00:26:20.182Z,0.33
2023-02-05T00:28:47.793Z,0.40
2023-02-05T00:31:17.584Z,0.31
2023-02-05T00:33:47.050Z,0.14
2023-02-05T00:36:14.915Z,0.15
2023-02-05T00:38:42.791Z,0.40
2023-02-05T00:41:10.893Z,0.39
2023-02-05T00:46:26.570Z,0.17
2023-02-05T00:48:55.374Z,0.00
2023-02-05T00:51:23.005Z,-0.79
2023-02-05T00:53:50.540Z,-0.31
2023-02-05T00:56:19.238Z,-0.17
2023-02-05T00:58:48.879Z,-0.27
2023-02-05T01:04:19.822Z,-0.79
2023-02-05T01:06:48.394Z,-0.63
2023-02-05T01:09:15.835Z,-0.61
2023-02-05T01:11:43.277Z,-0.99
2023-02-05T01:14:10.937Z,-0.78
2023-02-05T01:16:38.390Z,-0.60
2023-02-05T01:19:05.834Z,-0.30
2023-02-05T01:24:36.068Z,-0.69
2023-02-05T01:27:03.567Z,-0.54
2023-02-05T01:29:31.438Z,-0.46
2023-02-05T01:31:58.954Z,-0.80
2023-02-05T01:34:26.441Z,-0.36
2023-02-05T01:36:53.922Z,-0.39
2023-02-05T01:39:21.368Z,-0.27
2023-02-05T01:42:17.420Z,-0.79
2023-02-05T01:44:46.258Z,-0.55
2023-02-05T01:47:13.721Z,-0.42
2023-02-05T01:49:43.801Z,-0.20
2023-02-05T01:52:13.646Z,-0.02
2023-02-05T01:54:44.364Z,0.07
2023-02-05T01:57:15.806Z,0.09
2023-02-05T01:59:46.186Z,0.19
2023-02-05T02:05:17.739Z,0.49
2023-02-05T02:07:45.353Z,0.50
2023-02-05T02:10:17.104Z,0.78
2023-02-05T02:12:46.163Z,0.85
2023-02-05T02:18:28.266Z,1.01
2023-02-05T02:21:28.593Z,1.01
2023-02-05T02:24:14.825Z,1.38
2023-02-05T02:26:49.555Z,1.55
2023-02-05T02:29:20.975Z,1.33
2023-02-05T02:31:52.537Z,1.49
2023-02-05T02:37:25.382Z,1.67
2023-02-05T02:39:58.935Z,1.78
2023-02-05T02:45:32.396Z,1.76
2023-02-05T02:48:01.145Z,1.98
2023-02-05T02:50:32.936Z,2.22
2023-02-05T02:53:03.327Z,2.14
2023-02-05T02:55:33.845Z,2.19
2023-02-05T02:58:02.397Z,2.16
2023-02-05T03:00:32.672Z,1.99
2023-02-05T03:05:42.248Z,1.95
2023-02-05T03:08:13.950Z,2.04
2023-02-05T03:10:44.390Z,1.90
2023-02-05T03:13:14.683Z,2.48
2023-02-05T03:15:48.834Z,2.79
2023-02-05T03:21:30.483Z,3.06
2023-02-05T03:27:00.482Z,3.05
2023-02-05T03:29:44.551Z,2.99
2023-02-05T03:32:28.197Z,2.93
2023-02-05T03:35:04.648Z,2.86
2023-02-05T03:37:40.581Z,2.96
2023-02-05T03:40:14.608Z,2.93
2023-02-05T03:42:47.433Z,2.86
2023-02-05T03:45:25.047Z,2.58
2023-02-05T03:48:03.914Z,2.81
2023-02-05T03:50:36.188Z,2.87
2023-02-05T03:53:08.671Z,2.74
2023-02-05T03:55:39.783Z,2.78
2023-02-05T03:58:11.646Z,2.89
2023-02-05T04:00:40.823Z,2.99
2023-02-05T04:03:09.942Z,2.64
2023-02-05T04:05:38.028Z,2.51
2023-02-05T04:08:07.131Z,2.44
2023-02-05T04:10:41.889Z,2.60
2023-02-05T04:13:41.874Z,2.68
2023-02-05T04:16:12.057Z,2.83
2023-02-05T04:18:41.358Z,3.03
2023-02-05T04:21:09.267Z,2.81
2023-02-05T04:26:28.452Z,2.35
2023-02-05T04:29:01.850Z,2.56
2023-02-05T04:31:32.031Z,2.38
2023-02-05T04:34:01.765Z,2.15
2023-02-05T04:36:29.437Z,2.30
2023-02-05T04:38:57.746Z,2.24
2023-02-05T04:41:25.264Z,2.49
2023-02-05T04:43:52.669Z,2.68
2023-02-05T04:46:20.131Z,2.83
2023-02-05T04:48:47.570Z,2.96
2023-02-05T04:51:17.178Z,2.79
2023-02-05T04:53:44.733Z,2.77
2023-02-05T04:56:13.982Z,2.82
2023-02-05T04:58:41.574Z,2.98
2023-02-05T05:01:12.832Z,2.90
2023-02-05T05:03:40.359Z,2.72
2023-02-05T05:06:08.239Z,2.48
2023-02-05T05:08:37.114Z,2.12
2023-02-05T05:11:07.359Z,1.99
2023-02-05T05:13:35.323Z,1.69
2023-02-05T05:16:03.131Z,1.48
2023-02-05T05:18:30.685Z,1.69
2023-02-05T05:20:58.170Z,1.86
2023-02-05T05:23:25.620Z,2.45
2023-02-05T05:25:54.339Z,2.79
2023-02-05T05:28:21.785Z,2.89
2023-02-05T05:30:49.421Z,3.08
2023-02-05T05:33:17.127Z,2.93
2023-02-05T05:35:46.429Z,2.88
2023-02-05T05:38:14.074Z,2.82
2023-02-05T05:40:59.418Z,2.80
2023-02-05T05:43:46.022Z,3.08
2023-02-05T05:46:14.624Z,3.30
2023-02-05T05:48:42.164Z,3.51
2023-02-05T05:51:09.648Z,3.40
2023-02-05T05:53:37.089Z,3.42
2023-02-05T05:56:05.098Z,3.50
2023-02-05T05:58:33.842Z,3.50
2023-02-05T06:01:01.267Z,3.59
2023-02-05T06:03:28.705Z,3.61
2023-02-05T06:05:56.130Z,3.71
2023-02-05T06:08:25.910Z,2.89
2023-02-05T06:10:53.317Z,2.99
2023-02-05T06:13:20.834Z,3.22
2023-02-05T06:15:49.846Z,3.13
2023-02-05T06:18:17.348Z,3.15
2023-02-05T06:21:10.669Z,3.09
2023-02-05T06:23:38.171Z,3.38
2023-02-05T06:26:05.919Z,3.50
2023-02-05T06:28:33.318Z,3.63
2023-02-05T06:31:02.283Z,3.77
2023-02-05T06:33:29.907Z,3.56
2023-02-05T06:38:45.442Z,3.82
2023-02-05T06:41:12.912Z,4.05
2023-02-05T06:46:39.863Z,3.23
2023-02-05T06:49:07.339Z,3.47
2023-02-05T06:51:34.799Z,3.04
2023-02-05T06:54:02.339Z,3.20
2023-02-05T06:59:18.457Z,3.53
2023-02-05T07:01:47.226Z,3.61
2023-02-05T07:07:22.426Z,3.47
2023-02-05T07:12:48.456Z,3.64
2023-02-05T07:15:16.142Z,3.63
2023-02-05T07:20:24.887Z,3.79
2023-02-05T07:25:54.855Z,3.37
2023-02-05T07:28:22.259Z,3.61
2023-02-05T07:30:49.991Z,3.57
2023-02-05T07:33:17.702Z,4.02
2023-02-05T07:35:46.489Z,4.08
2023-02-05T07:38:39.111Z,4.09
2023-02-05T07:41:07.299Z,4.52
2023-02-05T07:43:35.390Z,4.68
2023-02-05T07:46:04.769Z,4.69
2023-02-05T07:48:32.833Z,4.67
2023-02-05T07:51:02.005Z,4.59
2023-02-05T07:53:29.853Z,4.81
2023-02-05T07:55:57.322Z,4.51
2023-02-05T07:58:24.732Z,4.74
2023-02-05T08:03:55.179Z,4.79
2023-02-05T08:06:23.942Z,4.11
2023-02-05T08:08:51.398Z,4.36
2023-02-05T08:11:19.612Z,4.27
2023-02-05T08:13:47.383Z,4.11
2023-02-05T08:16:16.476Z,4.44
2023-02-05T08:18:44.383Z,4.29
2023-02-05T08:21:11.799Z,4.46
2023-02-05T08:23:40.530Z,4.70
2023-02-05T08:28:56.848Z,4.67
2023-02-05T08:31:24.289Z,4.66
2023-02-05T08:33:54.672Z,4.13
2023-02-05T08:36:22.557Z,4.26
2023-02-05T08:41:40.145Z,4.40
2023-02-05T08:44:07.809Z,4.50
2023-02-05T08:46:48.788Z,4.47
2023-02-05T08:49:17.032Z,4.13
2023-02-05T08:54:47.979Z,4.89
2023-02-05T08:57:17.200Z,4.79
2023-02-05T08:59:44.734Z,4.60
2023-02-05T09:02:14.921Z,4.72
2023-02-05T09:04:43.156Z,4.76
2023-02-05T09:07:10.629Z,4.95
2023-02-05T09:09:38.298Z,4.67
2023-02-05T09:12:06.043Z,4.94
2023-02-05T09:14:36.907Z,4.97
2023-02-05T09:17:04.610Z,5.22
2023-02-05T09:19:34.613Z,5.38
2023-02-05T09:25:09.278Z,5.37
2023-02-05T09:27:36.783Z,5.57
2023-02-05T09:30:06.130Z,5.65
2023-02-05T09:32:33.549Z,5.73
2023-02-05T09:35:01.069Z,5.79
2023-02-05T09:37:28.585Z,5.86
2023-02-05T09:40:20.116Z,6.03
2023-02-05T09:42:51.657Z,6.22
2023-02-05T09:45:36.722Z,6.38
2023-02-05T09:51:11.198Z,6.57
2023-02-05T09:53:42.216Z,6.69
2023-02-05T09:56:10.265Z,6.89
2023-02-05T09:58:42.942Z,7.00
2023-02-05T10:01:15.805Z,7.06
2023-02-05T10:03:47.185Z,7.12
2023-02-05T10:09:39.533Z,7.47
2023-02-05T10:12:16.712Z,7.67
2023-02-05T10:14:50.057Z,7.90
2023-02-05T10:17:29.474Z,7.94
2023-02-05T10:20:16.459Z,8.07
2023-02-05T10:26:01.583Z,8.26
2023-02-05T10:28:41.780Z,8.08
2023-02-05T10:31:16.946Z,8.11
2023-02-05T10:36:34.307Z,7.52
2023-02-05T10:39:02.005Z,7.47
2023-02-05T10:41:33.099Z,6.86
2023-02-05T10:44:05.891Z,6.90
2023-02-05T10:46:35.359Z,6.84
2023-02-05T10:49:07.852Z,6.90
2023-02-05T10:54:35.175Z,7.10
2023-02-05T10:57:02.705Z,6.91
2023-02-05T10:59:33.781Z,6.91
2023-02-05T11:02:05.354Z,7.16
2023-02-05T11:04:38.308Z,7.56
2023-02-05T11:10:18.766Z,7.47
2023-02-05T11:12:47.416Z,7.82
2023-02-05T11:15:24.039Z,8.14
2023-02-05T11:20:56.896Z,8.52
2023-02-05T11:23:25.706Z,8.63
2023-02-05T11:25:56.724Z,8.72
2023-02-05T11:28:27.967Z,8.89
2023-02-05T11:30:56.321Z,9.03
2023-02-05T11:33:27.819Z,8.95
2023-02-05T11:35:57.122Z,8.78
2023-02-05T11:38:32.511Z,8.89
2023-02-05T11:41:02.512Z,9.03
2023-02-05T11:43:32.437Z,9.12
2023-02-05T11:46:00.674Z,9.01
2023-02-05T11:48:34.295Z,8.47
2023-02-05T11:51:02.598Z,8.49
2023-02-05T11:53:32.825Z,8.31
2023-02-05T11:56:04.896Z,8.24
2023-02-05T11:58:37.224Z,8.18
2023-02-05T12:01:07.842Z,8.02
2023-02-05T12:03:35.799Z,8.06
2023-02-05T12:06:09.017Z,8.23
2023-02-05T12:08:43.325Z,8.10
2023-02-05T12:11:31.006Z,7.53
2023-02-05T12:16:53.379Z,7.47
2023-02-05T12:19:22.153Z,7.60
2023-02-05T12:21:51.826Z,7.50
2023-02-05T12:27:30.884Z,7.58
2023-02-05T12:33:12.887Z,7.38
2023-02-05T12:35:52.950Z,7.26
2023-02-05T12:38:32.121Z,7.08
2023-02-05T12:41:07.369Z,6.85
2023-02-05T12:46:47.807Z,6.92
2023-02-05T12:49:27.237Z,6.78
2023-02-05T12:52:07.714Z,6.99
2023-02-05T12:54:49.637Z,7.04
2023-02-05T13:00:15.055Z,6.62
2023-02-05T13:02:49.064Z,6.72
2023-02-05T13:05:20.949Z,6.91
2023-02-05T13:10:51.501Z,6.93
2023-02-05T13:16:10.691Z,6.46
2023-02-05T13:18:40.814Z,6.67
2023-02-05T13:21:30.871Z,6.61
2023-02-05T13:24:21.750Z,6.58
2023-02-05T13:27:07.003Z,6.80
2023-02-05T13:29:43.691Z,6.55
2023-02-05T13:34:59.960Z,6.61
2023-02-05T13:37:42.634Z,6.64
2023-02-05T13:40:36.797Z,6.50
2023-02-05T13:46:29.708Z,6.72
2023-02-05T13:49:13.787Z,6.76
2023-02-05T13:55:13.647Z,6.12
2023-02-05T13:58:07.011Z,5.89
2023-02-05T14:00:34.830Z,5.88
2023-02-05T14:03:26.260Z,5.92
2023-02-05T14:05:53.912Z,5.99
2023-02-05T14:08:24.002Z,5.88
2023-02-05T14:10:59.149Z,5.93
2023-02-05T14:13:32.410Z,5.80
2023-02-05T14:16:31.871Z,5.88
2023-02-05T14:19:18.526Z,5.86
2023-02-05T14:22:00.330Z,5.88
2023-02-05T14:24:45.863Z,5.98
2023-02-05T14:30:46.830Z,6.09
2023-02-05T14:33:32.261Z,5.91
2023-02-05T14:36:44.541Z,5.93
2023-02-05T14:39:56.513Z,5.73
2023-02-05T14:42:37.825Z,5.85
2023-02-05T14:45:16.134Z,5.81
2023-02-05T14:47:45.625Z,5.82
2023-02-05T14:50:20.688Z,6.10
2023-02-05T14:52:48.959Z,6.10
2023-02-05T14:55:21.389Z,5.92
2023-02-05T15:00:47.950Z,6.15
2023-02-05T15:03:25.817Z,6.21
2023-02-05T15:09:06.198Z,6.26
2023-02-05T15:11:45.569Z,6.35
2023-02-05T15:14:44.283Z,6.16
2023-02-05T15:17:44.008Z,6.17
2023-02-05T15:20:21.376Z,5.97
2023-02-05T15:22:53.220Z,6.15
2023-02-05T15:25:30.429Z,5.94
2023-02-05T15:31:09.241Z,5.88
2023-02-05T15:33:44.554Z,5.90
2023-02-05T15:36:21.495Z,5.93
2023-02-05T15:38:54.065Z,5.93
2023-02-05T15:41:22.657Z,6.01
2023-02-05T15:44:00.823Z,5.41
2023-02-05T15:46:28.900Z,5.71
2023-02-05T15:48:57.071Z,5.66
2023-02-05T15:51:30.048Z,5.66
2023-02-05T15:53:59.289Z,5.78
2023-02-05T15:56:29.412Z,5.54
2023-02-05T15:59:00.410Z,5.62
2023-02-05T16:01:30.381Z,5.64
2023-02-05T16:03:58.039Z,5.59
2023-02-05T16:06:31.384Z,5.52
2023-02-05T16:08:58.788Z,5.56
2023-02-05T16:11:27.971Z,5.48
2023-02-05T16:14:11.398Z,5.38
2023-02-05T16:16:40.835Z,5.11
2023-02-05T16:19:15.127Z,5.15
2023-02-05T16:24:43.102Z,5.40
2023-02-05T16:27:14.411Z,5.59
2023-02-05T16:32:46.125Z,5.71
2023-02-05T16:35:22.973Z,5.59
2023-02-05T16:37:50.539Z,5.61
2023-02-05T16:40:30.673Z,5.59
2023-02-05T16:42:59.982Z,5.72
2023-02-05T16:45:29.007Z,5.76
2023-02-05T16:48:22.435Z,5.83
2023-02-05T16:50:50.294Z,5.65
2023-02-05T16:53:21.495Z,5.44
2023-02-05T16:55:51.370Z,5.22
2023-02-05T16:58:21.810Z,5.18
2023-02-05T17:00:54.518Z,5.13
2023-02-05T17:03:22.107Z,5.31
2023-02-05T17:06:00.898Z,5.35
2023-02-05T17:08:31.717Z,5.16
2023-02-05T17:11:02.382Z,5.36
2023-02-05T17:16:30.462Z,5.41
2023-02-05T17:18:59.557Z,5.43
2023-02-05T17:21:29.397Z,5.43
2023-02-05T17:23:59.255Z,5.52
2023-02-05T17:26:30.995Z,5.64
2023-02-05T17:29:01.103Z,5.28
2023-02-05T17:31:29.453Z,5.27
2023-02-05T17:33:58.524Z,5.44
2023-02-05T17:36:26.431Z,5.59
2023-02-05T17:38:53.867Z,5.56
2023-02-05T17:41:40.404Z,5.45
2023-02-05T17:44:10.481Z,5.56
2023-02-05T17:49:36.758Z,5.60
2023-02-05T17:52:04.269Z,5.61
2023-02-05T17:54:31.956Z,5.25
2023-02-05T17:57:05.946Z,5.41
2023-02-05T17:59:35.398Z,5.24
2023-02-05T18:04:51.871Z,5.36
2023-02-05T18:07:21.684Z,5.12
2023-02-05T18:09:49.136Z,5.05
2023-02-05T18:12:16.600Z,5.26
2023-02-05T18:14:45.378Z,5.25
2023-02-05T18:17:12.860Z,5.15
2023-02-05T18:22:28.923Z,5.20
2023-02-05T18:24:56.347Z,5.24
2023-02-05T18:27:23.899Z,5.26
2023-02-05T18:29:52.818Z,5.29
2023-02-05T18:32:20.775Z,5.03
2023-02-05T18:34:48.210Z,5.16
2023-02-05T18:37:16.553Z,4.97
2023-02-05T18:39:44.043Z,5.07
2023-02-05T18:42:12.676Z,5.02
2023-02-05T18:44:40.284Z,5.08
2023-02-05T18:49:52.721Z,4.74
2023-02-05T18:52:22.742Z,4.69
2023-02-05T18:54:50.421Z,4.74
2023-02-05T19:00:16.687Z,4.75
2023-02-05T19:02:44.102Z,4.44
2023-02-05T19:05:12.901Z,4.81
2023-02-05T19:07:40.438Z,4.98
2023-02-05T19:10:08.291Z,4.99
2023-02-05T19:12:35.724Z,5.07
2023-02-05T19:15:03.166Z,5.07
2023-02-05T19:17:30.564Z,5.02
2023-02-05T19:19:58.477Z,5.04
2023-02-05T19:22:27.394Z,4.99
2023-02-05T19:24:54.806Z,5.06
2023-02-05T19:27:22.255Z,4.99
2023-02-05T19:32:51.805Z,4.98
2023-02-05T19:35:19.310Z,4.82
2023-02-05T19:37:48.095Z,4.98
2023-02-05T19:40:16.029Z,4.73
2023-02-05T19:42:44.539Z,5.04
2023-02-05T19:48:18.311Z,5.02
2023-02-05T19:50:45.706Z,4.78
2023-02-05T19:53:14.444Z,4.75
2023-02-05T19:55:42.076Z,4.71
2023-02-05T19:58:09.502Z,4.55
2023-02-05T20:00:37.176Z,4.48
2023-02-05T20:03:04.802Z,4.62
2023-02-05T20:05:33.307Z,4.69
2023-02-05T20:08:00.941Z,4.50
2023-02-05T20:10:29.702Z,4.63
2023-02-05T20:15:45.831Z,4.69
2023-02-05T20:18:13.267Z,4.50
2023-02-05T20:20:40.886Z,4.57
2023-02-05T20:23:09.068Z,4.65
2023-02-05T20:25:37.809Z,4.50
2023-02-05T20:28:05.952Z,4.70
2023-02-05T20:33:21.822Z,4.74
2023-02-05T20:35:49.279Z,4.47
2023-02-05T20:38:16.713Z,4.49
2023-02-05T20:40:45.477Z,4.44
2023-02-05T20:43:12.938Z,4.67
2023-02-05T20:45:40.359Z,4.74
2023-02-05T20:48:07.831Z,4.87
2023-02-05T20:50:35.495Z,5.05
2023-02-05T20:53:03.101Z,5.00
2023-02-05T20:55:30.522Z,4.87
2023-02-05T20:57:59.281Z,4.98
2023-02-05T21:00:27.282Z,5.16
2023-02-05T21:02:54.895Z,5.20
2023-02-05T21:05:22.302Z,5.17
2023-02-05T21:07:49.779Z,5.12
2023-02-05T21:10:19.279Z,5.20
2023-02-05T21:12:46.792Z,5.12
2023-02-05T21:15:16.321Z,4.86
2023-02-05T21:17:43.844Z,4.98
2023-02-05T21:20:11.554Z,4.78
2023-02-05T21:22:38.984Z,4.83
2023-02-05T21:25:07.198Z,4.84
2023-02-05T21:27:34.642Z,4.71
2023-02-05T21:30:02.088Z,5.04
2023-02-05T21:32:32.960Z,4.94
2023-02-05T21:35:00.396Z,4.90
2023-02-05T21:37:27.835Z,5.01
2023-02-05T21:40:04.141Z,5.16
2023-02-05T21:42:36.191Z,4.88
2023-02-05T21:45:03.689Z,4.95
2023-02-05T21:47:32.654Z,4.83
2023-02-05T21:52:58.851Z,4.97
2023-02-05T21:55:26.788Z,5.19
2023-02-05T21:57:54.290Z,5.37
2023-02-05T22:00:21.712Z,5.07
2023-02-05T22:02:50.487Z,5.14
2023-02-05T22:05:17.967Z,5.22
2023-02-05T22:07:45.378Z,5.29
2023-02-05T22:10:12.781Z,5.39
2023-02-05T22:12:40.279Z,5.26
2023-02-05T22:15:08.179Z,4.59
2023-02-05T22:17:35.620Z,5.15
2023-02-05T22:20:04.667Z,5.13
2023-02-05T22:22:32.135Z,5.25
2023-02-05T22:24:59.600Z,5.23
2023-02-05T22:27:27.055Z,5.40
2023-02-05T22:29:55.131Z,5.30
2023-02-05T22:32:22.826Z,5.28
2023-02-05T22:34:50.242Z,4.89
2023-02-05T22:37:19.007Z,4.60
2023-02-05T22:39:46.443Z,4.37
2023-02-05T22:42:13.867Z,4.57
2023-02-05T22:44:41.270Z,4.70
2023-02-05T22:49:56.817Z,4.57
2023-02-05T22:52:26.128Z,4.61
2023-02-05T22:54:53.546Z,4.50
2023-02-05T22:57:20.973Z,4.46
2023-02-05T23:02:36.819Z,4.13
2023-02-05T23:05:04.571Z,4.28
2023-02-05T23:07:33.890Z,4.27
2023-02-05T23:10:01.315Z,4.36
2023-02-05T23:12:28.714Z,4.29
2023-02-05T23:14:56.745Z,4.34
2023-02-05T23:17:24.287Z,4.30
2023-02-05T23:19:52.338Z,4.50
2023-02-05T23:22:19.945Z,4.67
2023-02-05T23:24:48.713Z,4.71
2023-02-05T23:30:07.612Z,4.69
2023-02-05T23:35:34.317Z,4.45
2023-02-05T23:38:01.931Z,4.60
2023-02-05T23:40:30.684Z,4.64
2023-02-05T23:42:58.172Z,4.38
2023-02-05T23:48:13.930Z,4.47
2023-02-05T23:50:43.519Z,4.32
2023-02-05T23:55:41.556Z,4.32
2023-02-05T23:58:10.248Z,4.08
